ADDS METAR Data INFO
IDs: Format: Raw Decoded Include TAF

Data at: 1508 UTC 21 Feb 2018

KFIT 201452Z AUTO 28010KT 10SM SCT095 13/10 A3024 RMK AO2 SLP244 T01330100 50002 TSNO
KFIT 211352Z AUTO 24008G16KT 10SM FEW014 17/14 A3021 RMK AO2 SLP231 T01720139 TSNO
KFIT 211252Z AUTO 10SM CLR 17/14 A3021 RMK AO2 SLP230 T01670139 TSNO
KFIT 201452Z AUTO 28010KT 10SM SCT095 13/10 A3024 RMK AO2 SLP244 T01330100 50002 TSNO
KFIT 201352Z AUTO 31003KT 10SM FEW011 BKN080 OVC100 11/09 A3025 RMK AO2 SLP244 T01110094 TSNO
KFIT 201252Z AUTO 31004KT 8SM SCT011 OVC075 09/08 A3025 RMK AO2 SLP247 T00940083 TSNO
KFIT 201247Z AUTO 31004KT 3SM BR SCT011 OVC075 09/08 A3025 RMK AO2 TSNO
KFIT 201243Z AUTO 31003KT 1 1/4SM BR BKN011 OVC070 08/08 A3025 RMK AO2 T00830078 TSNO
KFIT 201235Z AUTO 00000KT 1SM BR OVC011 08/08 A3026 RMK AO2 T00830078 TSNO
KFIT 201226Z AUTO 00000KT 1 1/2SM BR OVC011 08/08 A3025 RMK AO2 T00830078 TSNO
KFIT 201152Z AUTO 36004KT 9SM OVC010 09/08 A3024 RMK AO2 SLP242 60001 70006 T00890083 10117 20067 51006 TSNO
KFIT 201145Z AUTO 36005KT 3SM BR OVC009 08/07 A3023 RMK AO2 T00780072 TSNO
KFIT 201135Z AUTO 36003KT 5SM BR OVC010 07/07 A3024 RMK AO2 T00670067 TSNO
KFIT 201126Z AUTO 00000KT 2 1/2SM BR OVC010 08/08 A3023 RMK AO2 VIS 1V5 T00780078 TSNO
KFIT 201116Z AUTO 00000KT 1 3/4SM BR OVC010 07/07 A3023 RMK AO2 VIS 1V5 T00720072 TSNO
KFIT 201052Z AUTO 00000KT 10SM OVC010 09/08 A3023 RMK AO2 SLP240 T00890083 TSNO
KFIT 201025Z AUTO 00000KT 10SM BKN012 BKN110 11/09 A3023 RMK AO2 T01060094 TSNO
KFIT 200952Z AUTO 31005KT 10SM FEW100 09/08 A3023 RMK AO2 SLP239 T00940083 TSNO
KFIT 200935Z AUTO 28004KT 10SM SCT013 SCT070 BKN100 10/09 A3023 RMK AO2 T01000089 TSNO
KFIT 200852Z AUTO 23007KT 10SM OVC012 11/09 A3022 RMK AO2 SLP236 60001 T01110094 56012 TSNO
KFIT 200752Z AUTO 23004KT 10SM OVC010 10/09 A3023 RMK AO2 SLP239 T01000094 TSNO
KFIT 200652Z AUTO 21004KT 10SM OVC011 11/09 A3024 RMK AO2 RAE0555B21E32 SLP243 P0001 T01060094 TSNO
KFIT 200552Z AUTO 17004KT 10SM -RA OVC012 11/09 A3026 RMK AO2 RAE06B42 SLP247 P0000 60005 T01060089 10106 20061 56011 TSNO
KFIT 200452Z AUTO VRB06KT 10SM -RA OVC013 10/08 A3026 RMK AO2 RAE09B50 SLP249 P0000 T01000083 401001089 TSNO
KFIT 200359Z AUTO 16004KT 10SM -RA OVC014 09/08 A3027 RMK AO2 P0000 T00940078 TSNO
KFIT 200352Z AUTO 18004KT 10SM -RA OVC015 09/08 A3028 RMK AO2 RAB05 SLP255 P0000 T00940078 TSNO